Montague, Massachusetts
Current Conditions -  °F | °C
As of 9:24 AM on Thursday 30 Oct 2014 (Local Time) from KORE Reporting Station
Haze Haze  
Wind Chill: 39°   Ceiling: 200
Heat Index: 39°   Visibility: 2.5mi
Dew Point: 39°   Wind: 0mph
Humidity: 100%   Direction: NA
Pressure: 29.96"   Gusts: NA
Location:  42.54°N, 72.54°W
Report Text: KORE 301324Z AUTO 00000KT 2 1/2SM BR BKN002 OVC065 04/04 A2996 RMK AO2 T00390039
Loading
Personal Weather Stations






























Interactive Weather Map
Tropical Storm Tracking
New forecast layout! Learn more

10-Day Weather Forecast

Advertisements
Track Severe Weather on mobile